Weather observations for the past three days for
Socorro Municipal Airport
Imperial (Metric)
Date Time (mdt) Wind (mph) Vis. (mi.) Weather Sky Cond. Temperature (ºF) Relative Humidity Wind Chill (°F) Heat Index (°F) Pressure Precipitation (in)
Air Dwpt 6 hour altimeter (in) sea level (mb) 1 hr 3 hr 6 hr
Max. Min.
31 11:35 N 9 G 18 10.00 Fair CLR 86.4 47.3 26% 84 30.18 0.0
31 11:15 N 13 10.00 Fair CLR 85.8 46.6 26% 83 30.18 0.0
31 10:55 NE 14 G 17 10.00 Fair CLR 84.7 48 28% 82 30.18 0.0
31 10:35 N 9 10.00 Fair CLR 83.3 48 29% 81 30.18 0.0
31 10:15 N 9 10.00 Fair CLR 81.1 48.4 32% 80 30.17 0.0
31 09:55 N 12 10.00 Fair CLR 78.4 48.4 35% 79 30.18 0.0
31 09:35 N 12 G 18 10.00 Fair CLR 78.8 48.6 35% 79 30.18 0.0
31 09:15 N 12 G 20 10.00 Fair CLR 77.4 50 38% 78 30.19 0.0
31 08:55 N 13 G 20 10.00 Fair CLR 75.7 50.4 41% 78 30.18 0.0
31 08:35 N 12 G 21 10.00 Fair CLR 74.8 50.9 43% 30.18 0.0
31 08:15 N 12 G 22 10.00 Fair CLR 74.5 50.9 44% 30.17 0.0
31 07:55 N 15 G 20 10.00 Fair CLR 74.3 50.9 44% 30.17 0.0
31 07:35 N 14 G 20 10.00 Fair CLR 73.4 51.3 46% 30.16 0.0
31 07:15 N 13 10.00 Fair CLR 72.9 51.8 48% 30.15 0.0
31 06:55 N 12 10.00 Fair CLR 72.1 52.2 50% 30.14 0.0
31 06:35 N 12 10.00 Fair CLR 72.1 52.7 51% 30.14 0.0
31 06:15 N 12 10.00 Fair CLR 71.6 52.9 52% 30.14 0.0
31 05:55 N 12 G 18 10.00 Partly Cloudy SCT110 72 53.1 79.2 71.6 52% 30.13 0.0
31 05:35 N 13 10.00 Mostly Cloudy BKN110 72.3 52.5 50% 30.14 0.0
31 05:15 N 8 10.00 Partly Cloudy SCT110 71.8 51.3 49% 30.14 0.0
31 04:55 NW 9 10.00 Fair CLR 72 50.9 48% 30.14 0.0
31 04:35 N 8 10.00 Fair CLR 72.5 50.5 46% 30.13 0.0
31 04:15 N 8 10.00 Partly Cloudy SCT110 73 50 44% 30.13 0.0
31 03:55 N 10 10.00 Partly Cloudy SCT110 73.4 50 44% 30.12 0.0
31 03:35 N 14 10.00 Fair CLR 74.5 49.1 41% 30.11 0.0
31 03:15 N 14 10.00 Fair CLR 74.5 48.7 40% 30.1 0.0
31 02:55 N 10 10.00 Partly Cloudy SCT110 74.7 49.1 41% 30.11 0.0
31 02:35 NW 7 10.00 Fair CLR 73.4 48.9 42% 30.11 0.0
31 02:15 NW 3 10.00 Fair CLR 74.1 48.6 41% 30.11 0.0
31 01:55 NW 6 10.00 Fair CLR 74.1 48.9 41% 30.11 0.0
31 01:35 N 5 10.00 Fair CLR 74.7 48.7 40% 30.11 0.0
31 01:15 N 3 10.00 Fair CLR 74.5 48.7 40% 30.11 0.0
31 00:55 N 5 10.00 Fair CLR 75.2 48.7 39% 78 30.11 0.0
31 00:35 N 5 10.00 Fair CLR 78.1 47.3 34% 78 30.11 0.0
31 00:15 N 6 10.00 Fair CLR 79.2 47.3 33% 79 30.12 0.0
30 23:55 NW 7 10.00 Partly Cloudy SCT120 77.5 48 90.3 75.4 35% 78 30.13 0.0
30 23:35 NW 8 10.00 Partly Cloudy SCT120 75.6 48.2 38% 78 30.12 0.0
30 23:15 NW 6 10.00 Fair CLR 76.1 48.4 38% 78 30.12 0.0
30 22:55 NE 8 10.00 Fair CLR 77 48.2 36% 78 30.12 0.0
30 22:35 N 6 10.00 Fair CLR 77.4 47.3 35% 78 30.11 0.0
30 22:15 N 7 10.00 Fair CLR 78.1 46.4 33% 78 30.11 0.0
30 21:55 N 8 10.00 Fair CLR 78.4 45.7 31% 78 30.1 0.0
30 21:35 N 7 10.00 Fair CLR 79.3 45.5 30% 79 30.1 0.0
30 21:15 N 10 10.00 Fair CLR 81 44.2 27% 80 30.09 0.0
30 20:55 N 8 10.00 Fair CLR 82.4 43.3 25% 80 30.08 0.0
30 20:35 N 7 10.00 Fair CLR 81.9 43.9 26% 80 30.07 0.0
30 20:15 NE 8 10.00 Fair CLR 83.8 43 24% 81 30.07 0.0
30 19:55 N 13 G 17 10.00 Fair CLR 84.2 42.6 23% 82 30.06 0.0
30 19:35 NE 13 G 16 10.00 Fair CLR 85.3 43 23% 82 30.06 0.0
30 19:15 NW 9 10.00 Fair CLR 86.2 43.3 22% 83 30.05 0.0
30 18:55 NW 12 10.00 Fair CLR 87.6 43.5 21% 84 30.05 0.0
30 18:35 NW 8 10.00 Fair CLR 88.7 41 19% 85 30.05 0.0
30 18:15 W 12 G 16 10.00 Fair CLR 89.8 41.5 18% 86 30.05 0.0
30 17:55 W 15 G 24 10.00 Fair CLR 90.3 40.6 96.3 88 18% 86 30.05 0.0
30 17:35 W 14 G 29 10.00 Fair CLR 90 41 18% 86 30.05 0.0
30 17:15 W 16 G 33 10.00 Fair CLR 88 43.3 21% 85 30.05 0.0
30 16:55 W 26 G 33 10.00 Partly Cloudy and Windy SCT120 89.1 45 22% 86 30.06 0.0
30 16:35 W 24 G 35 10.00 Partly Cloudy and Breezy SCT120 92.7 41.7 17% 89 30.06 0.0
30 16:15 NW 13 G 16 10.00 Fair CLR 93.2 38.1 14% 89 30.06 0.0
30 15:55 NW 15 G 18 10.00 Fair CLR 96.1 39.7 14% 92 30.06 0.0
30 15:35 NW 18 G 24 10.00 Fair CLR 95.7 40.3 15% 91 30.07 0.0
30 15:15 W 15 G 25 10.00 Partly Cloudy SCT100 93 40.6 16% 89 30.08 0.0
30 14:55 SE 5 10.00 Partly Cloudy SCT100 96.3 42.8 16% 92 30.08 0.0
30 14:35 E 3 10.00 Fair CLR 95 44.8 18% 91 30.1 0.0
30 14:15 NE 6 10.00 Fair CLR 94.1 45.1 19% 90 30.1 0.0
30 13:55 N 5 10.00 Fair CLR 94.6 45.5 18% 91 30.11 0.0
30 13:35 N 6 10.00 Fair CLR 93.2 45.7 19% 89 30.12 0.0
30 13:15 NW 3 10.00 Fair CLR 92.3 45.7 20% 89 30.13 0.0
30 12:55 E 7 10.00 Fair CLR 91.6 45.9 21% 88 30.14 0.0
30 12:35 N 6 10.00 Fair CLR 91.6 45.7 20% 88 30.15 0.0
30 12:15 S 5 10.00 Fair CLR 89.2 46.4 23% 86 30.16 0.0
30 11:55 N 7 10.00 Fair CLR 90.3 46.9 90.3 69.3 22% 87 30.17 0.0
30 11:35 NE 3 10.00 Fair CLR 88.2 47.5 24% 85 30.17 0.0
30 11:15 E 3 10.00 Fair CLR 87.1 47.8 26% 84 30.18 0.0
30 10:55 N 3 10.00 Fair CLR 86 48.2 27% 83 30.18 0.0
30 10:35 N 9 10.00 Fair CLR 85.6 48.6 28% 83 30.18 0.0
30 10:15 NE 9 10.00 Fair CLR 85.1 48.9 29% 83 30.19 0.0
30 09:55 N 10 G 18 10.00 Fair CLR 84.2 49.6 30% 82 30.19 0.0
30 09:35 NE 13 10.00 Fair CLR 83.3 49.8 31% 82 30.19 0.0
30 09:15 N 14 G 18 10.00 Fair CLR 81.7 49.6 33% 80 30.19 0.0
30 08:55 N 12 10.00 Fair CLR 79.9 50.9 36% 80 30.19 0.0
30 08:35 N 9 10.00 Fair CLR 77 52.3 42% 78 30.2 0.0
30 08:15 N 8 10.00 Fair CLR 75 52.7 46% 78 30.2 0.0
30 07:55 N 9 10.00 Fair CLR 74.3 52.5 47% 30.2 0.0
30 07:35 N 5 10.00 Fair CLR 71.4 53.8 54% 30.2 0.0
30 07:15 N 7 10.00 Fair CLR 71.2 53.8 54% 30.2 0.0
30 06:55 N 5 10.00 Fair CLR 70.2 53.6 56% 30.19 0.0
30 06:35 NW 6 10.00 Fair CLR 69.3 53.6 58% 30.19 0.0
30 06:15 NW 5 10.00 Fair CLR 70.2 53.6 56% 30.19 0.0
30 05:55 NW 5 10.00 Fair CLR 70.3 53.8 79.3 70.3 56% 30.19 0.0
30 05:35 NW 3 10.00 Fair CLR 70.7 53.8 55% 30.18 0.0
30 05:15 N 5 10.00 Fair CLR 71.1 53.8 55% 30.17 0.0
30 04:55 NE 7 10.00 Fair CLR 71.8 53.6 53% 30.18 0.0
30 04:35 NE 7 10.00 Fair CLR 72.1 53.6 52% 30.18 0.0
30 04:15 N 7 10.00 Fair CLR 72 53.6 53% 30.19 0.0
30 03:55 N 8 10.00 Fair CLR 71.8 53.6 53% 30.19 0.0
30 03:35 N 9 10.00 Partly Cloudy SCT110 72 53.6 53% 30.19 0.0
30 03:15 N 7 10.00 Fair CLR 72.5 53.8 52% 30.19 0.0
30 02:55 N 9 10.00 Fair CLR 72.5 53.4 51% 30.19 0.0
30 02:35 N 10 G 20 10.00 Fair CLR 73.6 53.6 50% 30.19 0.0
30 02:15 N 12 G 20 10.00 Fair CLR 74.1 53.6 49% 30.19 0.0
30 01:55 N 14 G 18 10.00 Partly Cloudy SCT120 74.1 53.6 49% 30.19 0.0
30 01:35 N 14 G 20 10.00 Partly Cloudy SCT120 75.4 52.9 46% 78 30.19 0.0
30 01:15 NW 12 10.00 Partly Cloudy SCT120 76.3 53.1 45% 78 30.19 0.0
30 00:55 N 9 10.00 Fair CLR 77.2 52.7 43% 78 30.19 0.0
30 00:35 N 15 10.00 Partly Cloudy SCT110 77.9 52.7 42% 79 30.18 0.0
30 00:15 N 10 G 17 10.00 Partly Cloudy SCT120 79.3 50 36% 79 30.17 0.0
29 23:55 N 15 10.00 Partly Cloudy SCT120 79.2 50 97.5 79.2 36% 79 30.17 0.0
29 23:35 N 15 G 21 10.00 Mostly Cloudy BKN110 80.6 48.9 33% 80 30.17 0.0
29 23:15 NW 14 10.00 Mostly Cloudy BKN120 80.2 49.1 34% 80 30.17 0.0
29 22:55 NW 15 G 22 10.00 Mostly Cloudy BKN120 82.9 46.2 28% 81 30.17 0.0
29 22:35 N 9 10.00 Mostly Cloudy BKN120 82.9 46.8 28% 81 30.16 0.0
29 22:15 NW 8 10.00 Partly Cloudy SCT120 81.1 47.3 31% 80 30.15 0.0
29 21:55 N 8 10.00 Fair CLR 81.5 47.7 31% 80 30.14 0.0
29 21:35 N 9 10.00 Fair CLR 81.5 48.2 31% 80 30.13 0.0
29 21:15 N 9 10.00 Fair CLR 81.9 48 31% 80 30.12 0.0
29 20:55 N 8 10.00 Fair CLR 82.6 47.7 30% 81 30.11 0.0
29 20:35 N 6 10.00 Fair CLR 84 46.4 27% 82 30.1 0.0
29 20:15 N 8 10.00 Partly Cloudy SCT120 84.7 46.9 27% 82 30.08 0.0
29 19:55 N 13 10.00 Partly Cloudy SCT120 85.6 47.3 26% 83 30.08 0.0
29 19:35 N 13 G 20 10.00 Fair CLR 87.6 45.5 23% 84 30.07 0.0
29 19:15 NW 9 10.00 Fair CLR 89.4 44.2 21% 86 30.07 0.0
29 18:55 W 15 G 20 10.00 Fair CLR 90.5 44.4 20% 87 30.06 0.0
29 18:35 W 15 G 18 10.00 Partly Cloudy SCT120 95.5 38.7 14% 91 30.06 0.0
29 18:15 W 13 10.00 Mostly Cloudy BKN120 95.9 37.9 13% 91 30.06 0.0
29 17:35 S 12 G 21 10.00 Partly Cloudy SCT120 97.3 37.2 12% 93 30.05 0.0
29 17:15 S 9 10.00 Partly Cloudy SCT120 97 37.2 12% 92 30.05 0.0
29 16:55 SE 8 G 16 10.00 Mostly Cloudy BKN120 97.7 37.6 12% 93 30.05 0.0
29 16:35 S 8 10.00 Partly Cloudy SCT120 96.6 37.2 13% 92 30.06 0.0
29 16:15 SE 13 G 20 10.00 Fair CLR 96.8 37.6 13% 92 30.07 0.0
29 15:55 S 14 G 24 10.00 Partly Cloudy SCT120 97 38.1 13% 92 30.07 0.0
29 15:35 SE 16 G 20 10.00 Partly Cloudy SCT110 98.2 39.2 13% 94 30.08 0.0
29 15:15 E 10 10.00 Fair CLR 98.6 39.6 13% 94 30.1 0.0
29 14:55 S 10 G 23 10.00 Fair CLR 99 40.8 13% 94 30.11 0.0
29 14:35 SE 13 G 21 10.00 Fair CLR 98.4 41.2 14% 94 30.12 0.0
29 14:15 SE 13 G 18 10.00 Fair CLR 98.1 41.5 14% 94 30.13 0.0
29 13:55 SE 13 G 16 10.00 Fair CLR 96.6 41.4 15% 92 30.14 0.0
29 13:35 E 7 G 10 10.00 Fair CLR 95.9 41.4 15% 92 30.15 0.0
29 13:15 E 12 10.00 Fair CLR 94.5 42.1 16% 90 30.16 0.0
29 12:55 SE 10 G 16 10.00 Fair CLR 94.5 42.4 16% 90 30.18 0.0
29 12:35 SE 10 G 16 10.00 Fair CLR 93.4 42.8 17% 89 30.2 0.0
29 12:15 SE 7 G 20 10.00 Fair CLR 92.7 43.3 18% 89 30.21 0.0
29 11:55 SE 14 G 17 10.00 Fair CLR 91.9 42.6 92.7 72.7 18% 88 30.22 0.0
29 11:35 SE 14 G 18 10.00 Fair CLR 92.1 44.4 19% 88 30.23 0.0
29 10:15 SE 7 10.00 Fair CLR 85.1 46.4 26% 83 30.25 0.0
29 09:55 SE 7 10.00 Fair CLR 83.3 48 29% 81 30.25 0.0
29 09:35 SE 5 10.00 Fair CLR 81.7 47.8 31% 80 30.24 0.0
29 09:15 SE 3 10.00 Fair CLR 80.4 48.7 33% 80 30.24 0.0
29 08:55 SE 3 10.00 Fair CLR 79 49.5 36% 79 30.24 0.0
29 08:35 SE 5 10.00 Fair CLR 78.3 50.2 37% 79 30.25 0.0
29 08:15 Calm 10.00 Fair CLR 75.9 50.2 41% 78 30.25 0.0
29 07:55 Calm 10.00 Fair CLR 73 49.3 43% 30.25 0.0
29 07:35 Calm 10.00 Fair CLR 74.1 50 43% 30.24 0.0
29 07:15 Calm 10.00 Fair CLR 73.8 49.6 43% 30.23 0.0
29 06:55 Calm 10.00 Fair CLR 72.9 50 45% 30.23 0.0
29 06:35 SE 3 10.00 Fair CLR 73.8 50 43% 30.21 0.0
29 06:15 SW 5 10.00 Fair CLR 75.7 45.5 34% 77 30.21 0.0
29 05:55 SW 5 10.00 Fair CLR 77 45.5 81.5 75.9 33% 78 30.21 0.0
29 05:35 SW 5 10.00 Fair CLR 77.9 45.5 32% 78 30.21 0.0
29 05:15 SW 5 10.00 Fair CLR 77.5 45.5 32% 78 30.21 0.0
29 04:55 SW 5 10.00 Fair CLR 78.1 45.5 32% 78 30.21 0.0
29 04:35 W 8 10.00 Fair CLR 78.1 45.9 32% 78 30.22 0.0
29 04:15 SW 8 10.00 Fair CLR 78.3 46 32% 78 30.22 0.0
29 03:55 SW 6 10.00 Thunderstorm in Vicinity SCT120 77.4 46.2 33% 78 30.22 0.0
29 03:35 W 6 10.00 Partly Cloudy SCT120 77 46.6 34% 78 30.22 0.0
29 03:15 SW 3 10.00 Partly Cloudy SCT120 76.6 46 34% 78 30.22 0.0
29 02:55 Calm 10.00 Mostly Cloudy BKN110 76.5 46.4 35% 78 30.22 0.0
29 02:35 SE 8 10.00 Mostly Cloudy BKN110 77.4 45.5 32% 78 30.22 0.0
29 02:15 Calm 10.00 Partly Cloudy SCT120 77.9 45.9 32% 78 30.2 0.0
29 01:55 Calm 10.00 Partly Cloudy SCT120 78.3 44.6 30% 78 30.2 0.0
29 01:35 Calm 10.00 Fair CLR 78.8 45 30% 79 30.21 0.0
29 01:15 Calm 10.00 Partly Cloudy SCT120 78.6 45 30% 78 30.21 0.0
29 00:55 S 3 10.00 Partly Cloudy SCT120 78.3 44.8 31% 78 30.21 0.0
29 00:35 SE 3 10.00 Fair CLR 78.3 45 31% 78 30.21 0.0
29 00:15 S 3 10.00 Fair CLR 79.7 45 29% 79 30.2 0.0
28 23:55 Calm 10.00 Fair CLR 81.5 45.1 95 80.4 28% 80 30.2 0.0
28 23:35 W 3 10.00 Fair CLR 81.5 44.4 27% 80 30.19 0.0
28 23:15 Calm 10.00 Fair CLR 81.3 44.6 27% 80 30.19 0.0
28 22:55 Calm 10.00 Fair CLR 80.8 44.1 27% 79 30.19 0.0
28 22:35 SW 3 10.00 Fair CLR 81.1 44.2 27% 80 30.18 0.0
28 22:15 W 6 10.00 Fair CLR 81.9 44.2 27% 80 30.19 0.0
28 21:55 W 7 10.00 Fair CLR 81.7 45.5 28% 80 30.19 0.0
28 21:35 NW 3 10.00 Fair CLR 82.8 46 28% 81 30.17 0.0
28 21:15 NW 3 10.00 Fair CLR 83.8 46.2 27% 82 30.17 0.0
28 20:55 NW 7 10.00 Fair CLR 84.7 44.8 25% 82 30.17 0.0
28 20:35 E 9 10.00 Fair CLR 86.2 44.1 23% 83 30.16 0.0
28 20:15 NE 17 G 25 10.00 Mostly Cloudy BKN110 87.8 44.4 22% 85 30.16 0.0
28 19:55 NE 13 G 20 10.00 Thunderstorm in Vicinity SCT110 89.8 44.2 21% 86 30.14 0.0
28 19:35 SW 5 10.00 Fair CLR 92.5 40.3 16% 88 30.13 0.0
28 19:15 W 7 10.00 Fair CLR 93.4 39.6 15% 89 30.13 0.0
28 18:55 SW 8 10.00 Fair CLR 94.6 40.3 15% 90 30.13 0.0
28 18:35 SW 9 10.00 Fair CLR 94.5 40.3 15% 90 30.13 0.0
28 18:15 SW 12 G 16 10.00 Fair CLR 95 40.1 15% 91 30.13 0.0
28 17:55 S 13 G 17 10.00 Fair CLR 95 40.8 98.6 92.7 15% 91 30.13 0.0
28 17:35 SW 9 G 16 10.00 Fair CLR 97.2 41 14% 93 30.13 0.0
28 17:15 SW 8 10.00 Fair CLR 96.1 40.5 14% 92 30.13 0.0
28 16:55 S 9 10.00 Fair CLR 96.4 38.7 13% 92 30.13 0.0
28 16:35 S 9 10.00 Partly Cloudy SCT110 95.2 39.7 14% 91 30.14 0.0
28 16:15 SW 12 G 18 10.00 Partly Cloudy SCT110 96.8 40.6 14% 92 30.14 0.0
28 15:55 S 7 10.00 Fair CLR 97.7 41 14% 93 30.15 0.0
28 15:35 S 13 G 20 10.00 Fair CLR 98.1 40.8 14% 94 30.15 0.0
28 15:15 SE 15 G 21 10.00 Fair CLR 96.6 41.2 15% 92 30.17 0.0
28 14:55 SE 14 G 18 10.00 Fair CLR 96.6 42.3 15% 92 30.17 0.0
28 14:35 SE 8 G 16 10.00 Fair CLR 96.6 42.3 15% 92 30.18 0.0
28 14:15 S 13 G 17 10.00 Partly Cloudy SCT095 97.5 42.8 15% 93 30.19 0.0
28 13:55 S 9 G 20 10.00 Partly Cloudy SCT095 97.5 44.1 16% 93 30.21 0.0
28 13:35 SE 10 10.00 Fair CLR 95.4 45.3 18% 91 30.21 0.0
28 13:15 S 8 G 20 10.00 Fair CLR 94.6 45.3 18% 91 30.22 0.0
28 12:55 S 6 10.00 Fair CLR 95 45.9 18% 91 30.23 0.0
28 12:35 S 13 G 20 10.00 Fair CLR 93.9 45.5 19% 90 30.25 0.0
28 12:15 S 10 G 26 10.00 Fair CLR 93.7 45.9 19% 90 30.26 0.0
28 11:55 S 17 G 22 10.00 Fair CLR 92.5 46 92.8 70.7 20% 89 30.27 0.0
Date Time (mdt) Wind (mph) Vis. (mi.) Weather Sky Cond. Air Dwpt Max. Min. Relative Humidity Wind Chill (°F) Heat Index (°F) altimeter (in) sea level (mb) 1 hr 3 hr 6 hr
6 hour
Temperature (ºF) Pressure Precipitation (in)